sensor_id;sensor_type;location;lat;lon;timestamp;P1;durP1;ratioP1;P2;durP2;ratioP2
37831;SDS011;23671;38.090;-122.570;2022-07-21T00:01:08;1.70;;;1.30;;
37831;SDS011;23671;38.090;-122.570;2022-07-21T00:03:35;2.17;;;1.30;;
37831;SDS011;23671;38.090;-122.570;2022-07-21T00:06:02;1.33;;;1.20;;
37831;SDS011;23671;38.090;-122.570;2022-07-21T00:08:30;1.77;;;1.42;;
37831;SDS011;23671;38.090;-122.570;2022-07-21T00:10:57;2.43;;;1.13;;
37831;SDS011;23671;38.090;-122.570;2022-07-21T00:13:25;3.00;;;1.33;;
37831;SDS011;23671;38.090;-122.570;2022-07-21T00:15:52;1.58;;;1.23;;
37831;SDS011;23671;38.090;-122.570;2022-07-21T00:18:19;3.13;;;1.38;;
37831;SDS011;23671;38.090;-122.570;2022-07-21T00:20:46;1.88;;;1.10;;
37831;SDS011;23671;38.090;-122.570;2022-07-21T00:23:13;1.27;;;1.08;;
37831;SDS011;23671;38.090;-122.570;2022-07-21T00:25:41;2.72;;;1.38;;
37831;SDS011;23671;38.090;-122.570;2022-07-21T00:28:08;1.95;;;1.38;;
37831;SDS011;23671;38.090;-122.570;2022-07-21T00:30:35;2.30;;;1.25;;
37831;SDS011;23671;38.090;-122.570;2022-07-21T00:33:02;2.53;;;1.45;;
37831;SDS011;23671;38.090;-122.570;2022-07-21T00:35:29;1.70;;;1.10;;
37831;SDS011;23671;38.090;-122.570;2022-07-21T00:37:56;3.28;;;1.30;;
37831;SDS011;23671;38.090;-122.570;2022-07-21T00:40:23;2.88;;;1.15;;
37831;SDS011;23671;38.090;-122.570;2022-07-21T00:42:50;1.17;;;1.08;;
37831;SDS011;23671;38.090;-122.570;2022-07-21T00:45:17;1.52;;;1.10;;
37831;SDS011;23671;38.090;-122.570;2022-07-21T00:47:44;1.33;;;1.00;;
37831;SDS011;23671;38.090;-122.570;2022-07-21T00:50:13;2.17;;;1.25;;
37831;SDS011;23671;38.090;-122.570;2022-07-21T00:52:42;1.83;;;1.35;;
37831;SDS011;23671;38.090;-122.570;2022-07-21T00:55:14;1.30;;;1.17;;
37831;SDS011;23671;38.090;-122.570;2022-07-21T00:57:43;1.50;;;1.10;;
37831;SDS011;23671;38.090;-122.570;2022-07-21T01:00:12;1.38;;;1.20;;
37831;SDS011;23671;38.090;-122.570;2022-07-21T01:02:44;2.20;;;1.20;;
37831;SDS011;23671;38.090;-122.570;2022-07-21T01:05:12;1.98;;;1.08;;
37831;SDS011;23671;38.090;-122.570;2022-07-21T01:07:41;1.15;;;1.00;;
37831;SDS011;23671;38.090;-122.570;2022-07-21T01:10:10;2.53;;;1.15;;
37831;SDS011;23671;38.090;-122.570;2022-07-21T01:12:39;1.80;;;1.25;;
37831;SDS011;23671;38.090;-122.570;2022-07-21T01:15:07;1.30;;;1.20;;
37831;SDS011;23671;38.090;-122.570;2022-07-21T01:17:36;1.77;;;1.10;;
37831;SDS011;23671;38.090;-122.570;2022-07-21T01:20:05;1.43;;;1.07;;
37831;SDS011;23671;38.090;-122.570;2022-07-21T01:22:35;1.30;;;1.20;;
37831;SDS011;23671;38.090;-122.570;2022-07-21T01:25:04;2.38;;;1.20;;
37831;SDS011;23671;38.090;-122.570;2022-07-21T01:27:31;1.00;;;0.97;;
37831;SDS011;23671;38.090;-122.570;2022-07-21T01:29:59;1.67;;;1.20;;
37831;SDS011;23671;38.090;-122.570;2022-07-21T01:32:26;3.07;;;1.20;;
37831;SDS011;23671;38.090;-122.570;2022-07-21T01:34:53;1.80;;;1.30;;
37831;SDS011;23671;38.090;-122.570;2022-07-21T01:37:26;1.02;;;0.95;;
37831;SDS011;23671;38.090;-122.570;2022-07-21T01:39:54;3.30;;;1.50;;
37831;SDS011;23671;38.090;-122.570;2022-07-21T01:42:39;1.23;;;0.90;;
37831;SDS011;23671;38.090;-122.570;2022-07-21T01:45:07;1.15;;;0.95;;
37831;SDS011;23671;38.090;-122.570;2022-07-21T01:47:34;1.92;;;1.33;;
37831;SDS011;23671;38.090;-122.570;2022-07-21T01:50:01;1.17;;;1.10;;
37831;SDS011;23671;38.090;-122.570;2022-07-21T01:52:28;1.45;;;1.00;;
37831;SDS011;23671;38.090;-122.570;2022-07-21T01:54:55;1.42;;;1.10;;
37831;SDS011;23671;38.090;-122.570;2022-07-21T01:57:22;1.42;;;1.30;;
37831;SDS011;23671;38.090;-122.570;2022-07-21T01:59:49;1.40;;;1.30;;
37831;SDS011;23671;38.090;-122.570;2022-07-21T02:02:16;1.65;;;1.15;;
37831;SDS011;23671;38.090;-122.570;2022-07-21T02:04:47;1.60;;;1.25;;
37831;SDS011;23671;38.090;-122.570;2022-07-21T02:07:14;2.40;;;1.23;;
37831;SDS011;23671;38.090;-122.570;2022-07-21T02:09:42;1.55;;;1.10;;
37831;SDS011;23671;38.090;-122.570;2022-07-21T02:12:09;1.00;;;0.90;;
37831;SDS011;23671;38.090;-122.570;2022-07-21T02:14:36;1.65;;;1.10;;
37831;SDS011;23671;38.090;-122.570;2022-07-21T02:17:03;1.52;;;0.98;;
37831;SDS011;23671;38.090;-122.570;2022-07-21T02:19:30;1.30;;;1.20;;
37831;SDS011;23671;38.090;-122.570;2022-07-21T02:21:57;1.38;;;1.00;;
37831;SDS011;23671;38.090;-122.570;2022-07-21T02:24:24;2.53;;;1.10;;
37831;SDS011;23671;38.090;-122.570;2022-07-21T02:26:51;1.17;;;1.00;;
37831;SDS011;23671;38.090;-122.570;2022-07-21T02:29:18;1.17;;;1.00;;
37831;SDS011;23671;38.090;-122.570;2022-07-21T02:31:45;1.13;;;1.00;;
37831;SDS011;23671;38.090;-122.570;2022-07-21T02:34:12;1.60;;;1.17;;
37831;SDS011;23671;38.090;-122.570;2022-07-21T02:36:39;1.52;;;1.00;;
37831;SDS011;23671;38.090;-122.570;2022-07-21T02:39:06;0.93;;;0.93;;
37831;SDS011;23671;38.090;-122.570;2022-07-21T02:41:34;1.15;;;1.00;;
37831;SDS011;23671;38.090;-122.570;2022-07-21T02:44:01;1.40;;;1.20;;
37831;SDS011;23671;38.090;-122.570;2022-07-21T02:46:28;1.13;;;0.95;;
37831;SDS011;23671;38.090;-122.570;2022-07-21T02:48:55;1.30;;;0.88;;
37831;SDS011;23671;38.090;-122.570;2022-07-21T02:51:21;0.95;;;0.90;;
37831;SDS011;23671;38.090;-122.570;2022-07-21T02:53:48;1.08;;;0.98;;
37831;SDS011;23671;38.090;-122.570;2022-07-21T02:56:15;1.33;;;1.05;;
37831;SDS011;23671;38.090;-122.570;2022-07-21T02:58:43;1.80;;;1.00;;
37831;SDS011;23671;38.090;-122.570;2022-07-21T03:01:10;0.70;;;0.70;;
37831;SDS011;23671;38.090;-122.570;2022-07-21T03:03:37;1.38;;;1.00;;
37831;SDS011;23671;38.090;-122.570;2022-07-21T03:06:04;1.27;;;1.02;;
37831;SDS011;23671;38.090;-122.570;2022-07-21T03:08:32;1.00;;;0.98;;
37831;SDS011;23671;38.090;-122.570;2022-07-21T03:10:59;1.13;;;1.00;;
37831;SDS011;23671;38.090;-122.570;2022-07-21T03:15:54;1.02;;;0.88;;
37831;SDS011;23671;38.090;-122.570;2022-07-21T03:18:22;0.80;;;0.80;;
37831;SDS011;23671;38.090;-122.570;2022-07-21T03:20:49;1.13;;;0.95;;
37831;SDS011;23671;38.090;-122.570;2022-07-21T03:23:16;0.77;;;0.77;;
37831;SDS011;23671;38.090;-122.570;2022-07-21T03:25:43;0.57;;;0.57;;
37831;SDS011;23671;38.090;-122.570;2022-07-21T03:28:10;1.45;;;0.70;;
37831;SDS011;23671;38.090;-122.570;2022-07-21T03:30:37;0.82;;;0.82;;
37831;SDS011;23671;38.090;-122.570;2022-07-21T03:33:05;2.35;;;1.00;;
37831;SDS011;23671;38.090;-122.570;2022-07-21T03:35:32;0.73;;;0.73;;
37831;SDS011;23671;38.090;-122.570;2022-07-21T03:38:01;1.02;;;0.80;;
37831;SDS011;23671;38.090;-122.570;2022-07-21T03:40:30;1.02;;;0.88;;
37831;SDS011;23671;38.090;-122.570;2022-07-21T03:42:59;0.82;;;0.82;;
37831;SDS011;23671;38.090;-122.570;2022-07-21T03:47:57;0.60;;;0.60;;
37831;SDS011;23671;38.090;-122.570;2022-07-21T03:50:25;0.70;;;0.70;;
37831;SDS011;23671;38.090;-122.570;2022-07-21T03:52:53;1.48;;;0.90;;
37831;SDS011;23671;38.090;-122.570;2022-07-21T03:55:21;1.15;;;0.70;;
37831;SDS011;23671;38.090;-122.570;2022-07-21T03:57:50;0.70;;;0.70;;
37831;SDS011;23671;38.090;-122.570;2022-07-21T04:02:45;1.92;;;0.70;;
37831;SDS011;23671;38.090;-122.570;2022-07-21T04:05:13;1.13;;;0.70;;
37831;SDS011;23671;38.090;-122.570;2022-07-21T04:07:42;0.88;;;0.80;;
37831;SDS011;23671;38.090;-122.570;2022-07-21T04:10:11;0.70;;;0.70;;
37831;SDS011;23671;38.090;-122.570;2022-07-21T04:12:40;0.57;;;0.57;;
37831;SDS011;23671;38.090;-122.570;2022-07-21T04:15:08;0.82;;;0.80;;
37831;SDS011;23671;38.090;-122.570;2022-07-21T04:17:37;1.50;;;0.75;;
37831;SDS011;23671;38.090;-122.570;2022-07-21T04:22:33;0.93;;;0.70;;
37831;SDS011;23671;38.090;-122.570;2022-07-21T04:25:01;0.88;;;0.70;;
37831;SDS011;23671;38.090;-122.570;2022-07-21T04:29:56;1.00;;;0.77;;
37831;SDS011;23671;38.090;-122.570;2022-07-21T04:32:23;1.00;;;0.93;;
37831;SDS011;23671;38.090;-122.570;2022-07-21T04:34:51;1.35;;;0.60;;
37831;SDS011;23671;38.090;-122.570;2022-07-21T04:37:18;0.60;;;0.52;;
37831;SDS011;23671;38.090;-122.570;2022-07-21T04:39:45;0.65;;;0.65;;
37831;SDS011;23671;38.090;-122.570;2022-07-21T04:42:12;1.13;;;0.63;;
37831;SDS011;23671;38.090;-122.570;2022-07-21T04:44:39;1.15;;;0.70;;
37831;SDS011;23671;38.090;-122.570;2022-07-21T04:47:25;1.20;;;0.85;;
37831;SDS011;23671;38.090;-122.570;2022-07-21T04:49:52;0.60;;;0.60;;
37831;SDS011;23671;38.090;-122.570;2022-07-21T04:52:19;0.95;;;0.73;;
37831;SDS011;23671;38.090;-122.570;2022-07-21T04:54:46;0.65;;;0.65;;
37831;SDS011;23671;38.090;-122.570;2022-07-21T04:57:13;1.13;;;0.82;;
37831;SDS011;23671;38.090;-122.570;2022-07-21T04:59:40;0.98;;;0.82;;
37831;SDS011;23671;38.090;-122.570;2022-07-21T05:02:08;0.60;;;0.60;;
37831;SDS011;23671;38.090;-122.570;2022-07-21T05:04:35;0.60;;;0.60;;
37831;SDS011;23671;38.090;-122.570;2022-07-21T05:07:02;0.75;;;0.60;;
37831;SDS011;23671;38.090;-122.570;2022-07-21T05:09:29;0.60;;;0.60;;
37831;SDS011;23671;38.090;-122.570;2022-07-21T05:11:56;1.40;;;0.52;;
37831;SDS011;23671;38.090;-122.570;2022-07-21T05:14:23;0.63;;;0.63;;
37831;SDS011;23671;38.090;-122.570;2022-07-21T05:16:50;0.60;;;0.60;;
37831;SDS011;23671;38.090;-122.570;2022-07-21T05:19:17;1.30;;;0.70;;
37831;SDS011;23671;38.090;-122.570;2022-07-21T05:21:44;1.40;;;0.70;;
37831;SDS011;23671;38.090;-122.570;2022-07-21T05:24:12;0.60;;;0.60;;
37831;SDS011;23671;38.090;-122.570;2022-07-21T05:26:39;0.60;;;0.60;;
37831;SDS011;23671;38.090;-122.570;2022-07-21T05:29:07;0.60;;;0.60;;
37831;SDS011;23671;38.090;-122.570;2022-07-21T05:31:34;0.80;;;0.70;;
37831;SDS011;23671;38.090;-122.570;2022-07-21T05:34:01;0.68;;;0.60;;
37831;SDS011;23671;38.090;-122.570;2022-07-21T05:36:27;0.50;;;0.47;;
37831;SDS011;23671;38.090;-122.570;2022-07-21T05:38:55;1.05;;;0.70;;
37831;SDS011;23671;38.090;-122.570;2022-07-21T05:41:22;2.40;;;0.73;;
37831;SDS011;23671;38.090;-122.570;2022-07-21T05:43:49;0.50;;;0.50;;
37831;SDS011;23671;38.090;-122.570;2022-07-21T05:46:16;0.57;;;0.57;;
37831;SDS011;23671;38.090;-122.570;2022-07-21T05:48:43;0.55;;;0.50;;
37831;SDS011;23671;38.090;-122.570;2022-07-21T05:51:10;0.52;;;0.52;;
37831;SDS011;23671;38.090;-122.570;2022-07-21T05:53:37;0.40;;;0.40;;
37831;SDS011;23671;38.090;-122.570;2022-07-21T05:56:04;0.55;;;0.52;;
37831;SDS011;23671;38.090;-122.570;2022-07-21T05:58:33;0.40;;;0.30;;
37831;SDS011;23671;38.090;-122.570;2022-07-21T06:01:00;0.47;;;0.47;;
37831;SDS011;23671;38.090;-122.570;2022-07-21T06:03:44;0.30;;;0.30;;
37831;SDS011;23671;38.090;-122.570;2022-07-21T06:06:14;0.60;;;0.60;;
37831;SDS011;23671;38.090;-122.570;2022-07-21T06:08:43;0.60;;;0.43;;
37831;SDS011;23671;38.090;-122.570;2022-07-21T06:11:13;0.38;;;0.38;;
37831;SDS011;23671;38.090;-122.570;2022-07-21T06:13:42;1.10;;;0.50;;
37831;SDS011;23671;38.090;-122.570;2022-07-21T06:16:10;0.38;;;0.38;;
37831;SDS011;23671;38.090;-122.570;2022-07-21T06:18:38;0.65;;;0.65;;
37831;SDS011;23671;38.090;-122.570;2022-07-21T06:21:05;0.50;;;0.50;;
37831;SDS011;23671;38.090;-122.570;2022-07-21T06:23:32;0.90;;;0.60;;
37831;SDS011;23671;38.090;-122.570;2022-07-21T06:26:00;0.40;;;0.40;;
37831;SDS011;23671;38.090;-122.570;2022-07-21T06:28:27;0.20;;;0.20;;
37831;SDS011;23671;38.090;-122.570;2022-07-21T06:30:54;0.30;;;0.30;;
37831;SDS011;23671;38.090;-122.570;2022-07-21T06:33:21;0.50;;;0.50;;
37831;SDS011;23671;38.090;-122.570;2022-07-21T06:35:48;0.52;;;0.52;;
37831;SDS011;23671;38.090;-122.570;2022-07-21T06:38:15;0.38;;;0.38;;
37831;SDS011;23671;38.090;-122.570;2022-07-21T06:40:42;0.35;;;0.30;;
37831;SDS011;23671;38.090;-122.570;2022-07-21T06:43:10;0.30;;;0.30;;
37831;SDS011;23671;38.090;-122.570;2022-07-21T06:45:38;0.57;;;0.40;;
37831;SDS011;23671;38.090;-122.570;2022-07-21T06:48:06;0.38;;;0.38;;
37831;SDS011;23671;38.090;-122.570;2022-07-21T06:50:34;0.38;;;0.38;;
37831;SDS011;23671;38.090;-122.570;2022-07-21T06:53:02;0.38;;;0.38;;
37831;SDS011;23671;38.090;-122.570;2022-07-21T06:55:29;0.40;;;0.32;;
37831;SDS011;23671;38.090;-122.570;2022-07-21T06:57:57;0.38;;;0.38;;
37831;SDS011;23671;38.090;-122.570;2022-07-21T07:00:33;0.47;;;0.30;;
37831;SDS011;23671;38.090;-122.570;2022-07-21T07:03:00;0.40;;;0.38;;
37831;SDS011;23671;38.090;-122.570;2022-07-21T07:05:27;0.38;;;0.30;;
37831;SDS011;23671;38.090;-122.570;2022-07-21T07:07:56;0.40;;;0.40;;
37831;SDS011;23671;38.090;-122.570;2022-07-21T07:10:23;0.40;;;0.40;;
37831;SDS011;23671;38.090;-122.570;2022-07-21T07:12:50;0.43;;;0.40;;
37831;SDS011;23671;38.090;-122.570;2022-07-21T07:15:17;2.72;;;0.30;;
37831;SDS011;23671;38.090;-122.570;2022-07-21T07:17:44;0.30;;;0.30;;
37831;SDS011;23671;38.090;-122.570;2022-07-21T07:20:11;0.30;;;0.30;;
37831;SDS011;23671;38.090;-122.570;2022-07-21T07:22:39;0.55;;;0.50;;
37831;SDS011;23671;38.090;-122.570;2022-07-21T07:25:06;0.40;;;0.40;;
37831;SDS011;23671;38.090;-122.570;2022-07-21T07:27:34;0.20;;;0.20;;
37831;SDS011;23671;38.090;-122.570;2022-07-21T07:30:01;0.30;;;0.30;;
37831;SDS011;23671;38.090;-122.570;2022-07-21T07:32:28;0.52;;;0.20;;
37831;SDS011;23671;38.090;-122.570;2022-07-21T07:34:55;0.73;;;0.30;;
37831;SDS011;23671;38.090;-122.570;2022-07-21T07:37:22;0.20;;;0.20;;
37831;SDS011;23671;38.090;-122.570;2022-07-21T07:39:49;0.60;;;0.30;;
37831;SDS011;23671;38.090;-122.570;2022-07-21T07:42:16;0.20;;;0.20;;
37831;SDS011;23671;38.090;-122.570;2022-07-21T07:44:43;0.20;;;0.20;;
37831;SDS011;23671;38.090;-122.570;2022-07-21T07:47:11;0.50;;;0.50;;
37831;SDS011;23671;38.090;-122.570;2022-07-21T07:49:39;0.40;;;0.40;;
37831;SDS011;23671;38.090;-122.570;2022-07-21T07:52:06;0.70;;;0.40;;
37831;SDS011;23671;38.090;-122.570;2022-07-21T07:54:33;0.55;;;0.28;;
37831;SDS011;23671;38.090;-122.570;2022-07-21T07:57:00;0.30;;;0.22;;
37831;SDS011;23671;38.090;-122.570;2022-07-21T07:59:27;0.30;;;0.30;;
37831;SDS011;23671;38.090;-122.570;2022-07-21T08:01:54;0.40;;;0.30;;
37831;SDS011;23671;38.090;-122.570;2022-07-21T08:04:20;0.30;;;0.30;;
37831;SDS011;23671;38.090;-122.570;2022-07-21T08:06:47;0.20;;;0.20;;
37831;SDS011;23671;38.090;-122.570;2022-07-21T08:09:14;0.30;;;0.30;;
37831;SDS011;23671;38.090;-122.570;2022-07-21T08:11:43;0.55;;;0.20;;
37831;SDS011;23671;38.090;-122.570;2022-07-21T08:14:15;0.38;;;0.32;;
37831;SDS011;23671;38.090;-122.570;2022-07-21T08:16:42;0.30;;;0.30;;
37831;SDS011;23671;38.090;-122.570;2022-07-21T08:19:10;0.20;;;0.20;;
37831;SDS011;23671;38.090;-122.570;2022-07-21T08:21:37;0.82;;;0.30;;
37831;SDS011;23671;38.090;-122.570;2022-07-21T08:24:04;0.20;;;0.20;;
37831;SDS011;23671;38.090;-122.570;2022-07-21T08:26:32;0.32;;;0.30;;
37831;SDS011;23671;38.090;-122.570;2022-07-21T08:28:59;0.55;;;0.35;;
37831;SDS011;23671;38.090;-122.570;2022-07-21T08:31:26;0.20;;;0.20;;
37831;SDS011;23671;38.090;-122.570;2022-07-21T08:33:53;0.20;;;0.20;;
37831;SDS011;23671;38.090;-122.570;2022-07-21T08:36:20;0.20;;;0.20;;
37831;SDS011;23671;38.090;-122.570;2022-07-21T08:38:47;0.52;;;0.28;;
37831;SDS011;23671;38.090;-122.570;2022-07-21T08:41:14;0.10;;;0.10;;
37831;SDS011;23671;38.090;-122.570;2022-07-21T08:43:41;0.40;;;0.40;;
37831;SDS011;23671;38.090;-122.570;2022-07-21T08:46:09;0.20;;;0.20;;
37831;SDS011;23671;38.090;-122.570;2022-07-21T08:48:36;0.20;;;0.20;;
37831;SDS011;23671;38.090;-122.570;2022-07-21T08:51:04;0.30;;;0.30;;
37831;SDS011;23671;38.090;-122.570;2022-07-21T08:53:31;0.38;;;0.38;;
37831;SDS011;23671;38.090;-122.570;2022-07-21T08:55:58;0.30;;;0.30;;
37831;SDS011;23671;38.090;-122.570;2022-07-21T08:58:25;0.25;;;0.25;;
37831;SDS011;23671;38.090;-122.570;2022-07-21T09:00:52;0.30;;;0.30;;
37831;SDS011;23671;38.090;-122.570;2022-07-21T09:03:21;0.40;;;0.40;;
37831;SDS011;23671;38.090;-122.570;2022-07-21T09:06:00;0.20;;;0.20;;
37831;SDS011;23671;38.090;-122.570;2022-07-21T09:08:40;0.20;;;0.20;;
37831;SDS011;23671;38.090;-122.570;2022-07-21T09:11:23;0.28;;;0.20;;
37831;SDS011;23671;38.090;-122.570;2022-07-21T09:14:05;0.65;;;0.20;;
37831;SDS011;23671;38.090;-122.570;2022-07-21T09:19:43;0.20;;;0.20;;
37831;SDS011;23671;38.090;-122.570;2022-07-21T09:22:05;1.45;;;0.30;;
37831;SDS011;23671;38.090;-122.570;2022-07-21T09:24:38;0.28;;;0.28;;
37831;SDS011;23671;38.090;-122.570;2022-07-21T09:27:18;0.50;;;0.50;;
37831;SDS011;23671;38.090;-122.570;2022-07-21T09:29:50;0.52;;;0.43;;
37831;SDS011;23671;38.090;-122.570;2022-07-21T09:34:49;0.40;;;0.40;;
37831;SDS011;23671;38.090;-122.570;2022-07-21T09:37:26;0.23;;;0.23;;
37831;SDS011;23671;38.090;-122.570;2022-07-21T09:39:55;0.50;;;0.43;;
37831;SDS011;23671;38.090;-122.570;2022-07-21T09:42:28;1.08;;;0.50;;
37831;SDS011;23671;38.090;-122.570;2022-07-21T09:45:03;0.35;;;0.35;;
37831;SDS011;23671;38.090;-122.570;2022-07-21T09:47:38;0.30;;;0.30;;
37831;SDS011;23671;38.090;-122.570;2022-07-21T09:50:07;0.20;;;0.20;;
37831;SDS011;23671;38.090;-122.570;2022-07-21T09:52:38;1.35;;;0.45;;
37831;SDS011;23671;38.090;-122.570;2022-07-21T09:55:08;0.22;;;0.20;;
37831;SDS011;23671;38.090;-122.570;2022-07-21T09:57:37;0.60;;;0.40;;
37831;SDS011;23671;38.090;-122.570;2022-07-21T10:00:05;0.32;;;0.32;;
37831;SDS011;23671;38.090;-122.570;2022-07-21T10:02:38;0.28;;;0.28;;
37831;SDS011;23671;38.090;-122.570;2022-07-21T10:07:38;0.47;;;0.40;;
37831;SDS011;23671;38.090;-122.570;2022-07-21T10:10:10;0.80;;;0.40;;
37831;SDS011;23671;38.090;-122.570;2022-07-21T10:12:38;0.30;;;0.30;;
37831;SDS011;23671;38.090;-122.570;2022-07-21T10:15:05;0.30;;;0.30;;
37831;SDS011;23671;38.090;-122.570;2022-07-21T10:17:33;0.25;;;0.25;;
37831;SDS011;23671;38.090;-122.570;2022-07-21T10:20:08;1.30;;;0.30;;
37831;SDS011;23671;38.090;-122.570;2022-07-21T10:25:47;0.40;;;0.40;;
37831;SDS011;23671;38.090;-122.570;2022-07-21T10:28:16;1.20;;;0.38;;
37831;SDS011;23671;38.090;-122.570;2022-07-21T10:30:51;0.32;;;0.32;;
37831;SDS011;23671;38.090;-122.570;2022-07-21T10:33:21;0.25;;;0.25;;
37831;SDS011;23671;38.090;-122.570;2022-07-21T10:36:07;0.43;;;0.40;;
37831;SDS011;23671;38.090;-122.570;2022-07-21T10:38:35;0.80;;;0.40;;
37831;SDS011;23671;38.090;-122.570;2022-07-21T10:41:03;0.38;;;0.38;;
37831;SDS011;23671;38.090;-122.570;2022-07-21T10:46:03;0.30;;;0.30;;
37831;SDS011;23671;38.090;-122.570;2022-07-21T10:48:50;0.30;;;0.30;;
37831;SDS011;23671;38.090;-122.570;2022-07-21T10:51:17;0.52;;;0.50;;
37831;SDS011;23671;38.090;-122.570;2022-07-21T10:53:44;0.30;;;0.30;;
37831;SDS011;23671;38.090;-122.570;2022-07-21T10:56:29;0.30;;;0.30;;
37831;SDS011;23671;38.090;-122.570;2022-07-21T10:58:56;0.20;;;0.20;;
37831;SDS011;23671;38.090;-122.570;2022-07-21T11:01:24;0.40;;;0.40;;
37831;SDS011;23671;38.090;-122.570;2022-07-21T11:04:07;0.30;;;0.30;;
37831;SDS011;23671;38.090;-122.570;2022-07-21T11:06:37;0.55;;;0.50;;
37831;SDS011;23671;38.090;-122.570;2022-07-21T11:11:38;0.22;;;0.22;;
37831;SDS011;23671;38.090;-122.570;2022-07-21T11:14:39;0.65;;;0.40;;
37831;SDS011;23671;38.090;-122.570;2022-07-21T11:17:08;0.55;;;0.45;;
37831;SDS011;23671;38.090;-122.570;2022-07-21T11:19:55;0.32;;;0.20;;
37831;SDS011;23671;38.090;-122.570;2022-07-21T11:22:29;0.30;;;0.30;;
37831;SDS011;23671;38.090;-122.570;2022-07-21T11:27:26;0.30;;;0.30;;
37831;SDS011;23671;38.090;-122.570;2022-07-21T11:30:00;0.98;;;0.40;;
37831;SDS011;23671;38.090;-122.570;2022-07-21T11:32:29;0.30;;;0.30;;
37831;SDS011;23671;38.090;-122.570;2022-07-21T11:34:58;0.77;;;0.38;;
37831;SDS011;23671;38.090;-122.570;2022-07-21T11:40:08;0.63;;;0.35;;
37831;SDS011;23671;38.090;-122.570;2022-07-21T11:42:38;0.30;;;0.30;;
37831;SDS011;23671;38.090;-122.570;2022-07-21T11:45:06;0.83;;;0.40;;
37831;SDS011;23671;38.090;-122.570;2022-07-21T11:47:34;0.30;;;0.30;;
37831;SDS011;23671;38.090;-122.570;2022-07-21T11:50:03;0.40;;;0.40;;
37831;SDS011;23671;38.090;-122.570;2022-07-21T11:52:37;0.30;;;0.30;;
37831;SDS011;23671;38.090;-122.570;2022-07-21T11:57:33;0.23;;;0.20;;
37831;SDS011;23671;38.090;-122.570;2022-07-21T12:00:02;0.93;;;0.47;;
37831;SDS011;23671;38.090;-122.570;2022-07-21T12:02:33;0.30;;;0.30;;
37831;SDS011;23671;38.090;-122.570;2022-07-21T12:05:04;0.30;;;0.30;;
37831;SDS011;23671;38.090;-122.570;2022-07-21T12:07:39;0.35;;;0.35;;
37831;SDS011;23671;38.090;-122.570;2022-07-21T12:10:24;0.20;;;0.20;;
37831;SDS011;23671;38.090;-122.570;2022-07-21T12:12:57;0.30;;;0.30;;
37831;SDS011;23671;38.090;-122.570;2022-07-21T12:15:37;0.30;;;0.30;;
37831;SDS011;23671;38.090;-122.570;2022-07-21T12:18:20;0.40;;;0.40;;
37831;SDS011;23671;38.090;-122.570;2022-07-21T12:21:00;0.40;;;0.30;;
37831;SDS011;23671;38.090;-122.570;2022-07-21T12:23:29;0.22;;;0.22;;
37831;SDS011;23671;38.090;-122.570;2022-07-21T12:26:00;0.47;;;0.43;;
37831;SDS011;23671;38.090;-122.570;2022-07-21T12:28:43;0.35;;;0.20;;
37831;SDS011;23671;38.090;-122.570;2022-07-21T12:31:13;0.38;;;0.38;;
37831;SDS011;23671;38.090;-122.570;2022-07-21T12:33:41;0.63;;;0.40;;
37831;SDS011;23671;38.090;-122.570;2022-07-21T12:36:09;0.40;;;0.38;;
37831;SDS011;23671;38.090;-122.570;2022-07-21T12:38:37;0.52;;;0.35;;
37831;SDS011;23671;38.090;-122.570;2022-07-21T12:41:09;0.50;;;0.32;;
37831;SDS011;23671;38.090;-122.570;2022-07-21T12:43:38;0.40;;;0.40;;
37831;SDS011;23671;38.090;-122.570;2022-07-21T12:46:13;0.30;;;0.30;;
37831;SDS011;23671;38.090;-122.570;2022-07-21T12:48:43;0.38;;;0.20;;
37831;SDS011;23671;38.090;-122.570;2022-07-21T12:53:54;0.40;;;0.40;;
37831;SDS011;23671;38.090;-122.570;2022-07-21T12:58:50;0.47;;;0.22;;
37831;SDS011;23671;38.090;-122.570;2022-07-21T13:01:19;0.20;;;0.20;;
37831;SDS011;23671;38.090;-122.570;2022-07-21T13:03:47;0.40;;;0.40;;
37831;SDS011;23671;38.090;-122.570;2022-07-21T13:06:15;0.32;;;0.32;;
37831;SDS011;23671;38.090;-122.570;2022-07-21T13:08:42;0.30;;;0.30;;
37831;SDS011;23671;38.090;-122.570;2022-07-21T13:11:16;0.30;;;0.30;;
37831;SDS011;23671;38.090;-122.570;2022-07-21T13:13:45;0.30;;;0.30;;
37831;SDS011;23671;38.090;-122.570;2022-07-21T13:16:13;0.32;;;0.30;;
37831;SDS011;23671;38.090;-122.570;2022-07-21T13:18:40;0.30;;;0.30;;
37831;SDS011;23671;38.090;-122.570;2022-07-21T13:21:07;0.30;;;0.30;;
37831;SDS011;23671;38.090;-122.570;2022-07-21T13:23:34;0.30;;;0.22;;
37831;SDS011;23671;38.090;-122.570;2022-07-21T13:26:01;0.20;;;0.20;;
37831;SDS011;23671;38.090;-122.570;2022-07-21T13:28:28;0.30;;;0.30;;
37831;SDS011;23671;38.090;-122.570;2022-07-21T13:30:56;0.40;;;0.40;;
37831;SDS011;23671;38.090;-122.570;2022-07-21T13:33:23;0.20;;;0.20;;
37831;SDS011;23671;38.090;-122.570;2022-07-21T13:35:50;0.40;;;0.30;;
37831;SDS011;23671;38.090;-122.570;2022-07-21T13:38:17;0.40;;;0.30;;
37831;SDS011;23671;38.090;-122.570;2022-07-21T13:40:44;0.43;;;0.30;;
37831;SDS011;23671;38.090;-122.570;2022-07-21T13:43:11;0.55;;;0.55;;
37831;SDS011;23671;38.090;-122.570;2022-07-21T13:45:40;0.50;;;0.30;;
37831;SDS011;23671;38.090;-122.570;2022-07-21T13:48:07;0.25;;;0.25;;
37831;SDS011;23671;38.090;-122.570;2022-07-21T13:50:34;0.85;;;0.40;;
37831;SDS011;23671;38.090;-122.570;2022-07-21T13:53:02;0.70;;;0.20;;
37831;SDS011;23671;38.090;-122.570;2022-07-21T13:55:29;0.25;;;0.25;;
37831;SDS011;23671;38.090;-122.570;2022-07-21T13:57:56;0.38;;;0.30;;
37831;SDS011;23671;38.090;-122.570;2022-07-21T14:00:23;0.20;;;0.20;;
37831;SDS011;23671;38.090;-122.570;2022-07-21T14:02:50;1.63;;;0.30;;
37831;SDS011;23671;38.090;-122.570;2022-07-21T14:05:17;0.55;;;0.30;;
37831;SDS011;23671;38.090;-122.570;2022-07-21T14:07:44;0.32;;;0.20;;
37831;SDS011;23671;38.090;-122.570;2022-07-21T14:10:11;0.63;;;0.30;;
37831;SDS011;23671;38.090;-122.570;2022-07-21T14:12:38;0.68;;;0.40;;
37831;SDS011;23671;38.090;-122.570;2022-07-21T14:15:05;0.30;;;0.30;;
37831;SDS011;23671;38.090;-122.570;2022-07-21T14:17:33;0.35;;;0.30;;
37831;SDS011;23671;38.090;-122.570;2022-07-21T14:20:00;0.63;;;0.50;;
37831;SDS011;23671;38.090;-122.570;2022-07-21T14:22:27;0.20;;;0.20;;
37831;SDS011;23671;38.090;-122.570;2022-07-21T14:24:54;0.38;;;0.30;;
37831;SDS011;23671;38.090;-122.570;2022-07-21T14:27:39;0.17;;;0.17;;
37831;SDS011;23671;38.090;-122.570;2022-07-21T14:30:06;0.40;;;0.30;;
37831;SDS011;23671;38.090;-122.570;2022-07-21T14:32:34;0.28;;;0.20;;
37831;SDS011;23671;38.090;-122.570;2022-07-21T14:35:01;0.50;;;0.40;;
37831;SDS011;23671;38.090;-122.570;2022-07-21T14:37:28;0.40;;;0.40;;
37831;SDS011;23671;38.090;-122.570;2022-07-21T14:39:55;0.20;;;0.20;;
37831;SDS011;23671;38.090;-122.570;2022-07-21T14:42:22;0.30;;;0.20;;
37831;SDS011;23671;38.090;-122.570;2022-07-21T14:44:49;0.30;;;0.30;;
37831;SDS011;23671;38.090;-122.570;2022-07-21T14:47:16;0.40;;;0.40;;
37831;SDS011;23671;38.090;-122.570;2022-07-21T14:49:43;0.47;;;0.40;;
37831;SDS011;23671;38.090;-122.570;2022-07-21T14:52:10;0.35;;;0.35;;
37831;SDS011;23671;38.090;-122.570;2022-07-21T14:54:37;0.50;;;0.43;;
37831;SDS011;23671;38.090;-122.570;2022-07-21T14:57:04;0.38;;;0.38;;
37831;SDS011;23671;38.090;-122.570;2022-07-21T14:59:31;0.30;;;0.30;;